createdAt,value
2018-06-28T00:02:04.346Z,18.93
2018-06-28T00:04:32.620Z,23.07
2018-06-28T00:07:01.395Z,20.40
2018-06-28T00:09:29.505Z,26.03
2018-06-28T00:11:57.536Z,20.60
2018-06-28T00:14:25.993Z,19.10
2018-06-28T00:16:54.113Z,20.80
2018-06-28T00:19:22.151Z,24.63
2018-06-28T00:21:50.291Z,19.50
2018-06-28T00:24:18.437Z,19.20
2018-06-28T00:26:46.507Z,20.50
2018-06-28T00:29:14.604Z,19.20
2018-06-28T00:31:42.653Z,20.30
2018-06-28T00:34:10.716Z,19.67
2018-06-28T00:36:38.816Z,19.87
2018-06-28T00:39:07.606Z,20.17
2018-06-28T00:41:35.723Z,24.67
2018-06-28T00:44:03.763Z,22.27
2018-06-28T00:46:31.921Z,21.23
2018-06-28T00:48:59.965Z,20.37
2018-06-28T00:51:28.430Z,25.77
2018-06-28T00:53:56.538Z,21.67
2018-06-28T00:56:24.567Z,19.53
2018-06-28T00:58:52.660Z,21.30
2018-06-28T01:01:20.693Z,26.83
2018-06-28T01:03:48.718Z,20.93
2018-06-28T01:06:16.733Z,20.80
2018-06-28T01:08:44.863Z,24.07
2018-06-28T01:11:12.881Z,18.90
2018-06-28T01:13:41.229Z,30.40
2018-06-28T01:16:09.305Z,22.47
2018-06-28T01:18:37.405Z,23.50
2018-06-28T01:21:05.753Z,22.97
2018-06-28T01:23:33.834Z,19.30
2018-06-28T01:26:01.926Z,22.10
2018-06-28T01:28:29.973Z,22.17
2018-06-28T01:30:57.998Z,19.70
2018-06-28T01:33:26.072Z,25.17
2018-06-28T01:35:54.150Z,21.77
2018-06-28T01:38:22.197Z,20.33
2018-06-28T01:40:50.296Z,25.80
2018-06-28T01:43:25.045Z,22.10
2018-06-28T01:45:53.150Z,22.67
2018-06-28T01:48:21.177Z,24.20
2018-06-28T01:50:49.209Z,21.60
2018-06-28T01:53:17.246Z,19.57
2018-06-28T01:55:45.358Z,22.30
2018-06-28T01:58:13.394Z,23.30
2018-06-28T02:00:41.451Z,20.30
2018-06-28T02:03:09.509Z,19.87
2018-06-28T02:05:37.641Z,22.57
2018-06-28T02:08:05.902Z,21.50
2018-06-28T02:10:33.957Z,25.20
2018-06-28T02:13:02.042Z,26.30
2018-06-28T02:15:36.574Z,21.97
2018-06-28T02:18:05.409Z,20.77
2018-06-28T02:20:33.449Z,24.33
2018-06-28T02:23:01.502Z,24.60
2018-06-28T02:25:29.661Z,24.57
2018-06-28T02:27:57.677Z,24.53
2018-06-28T02:30:25.690Z,22.97
2018-06-28T02:32:53.739Z,23.60
2018-06-28T02:35:21.766Z,26.63
2018-06-28T02:37:49.795Z,26.37
2018-06-28T02:40:17.901Z,27.13
2018-06-28T02:42:45.951Z,26.33
2018-06-28T02:45:13.975Z,27.50
2018-06-28T02:47:42.269Z,21.80
2018-06-28T02:50:10.278Z,30.13
2018-06-28T02:52:38.333Z,25.80
2018-06-28T02:55:06.358Z,29.27
2018-06-28T02:57:34.494Z,27.63
2018-06-28T03:00:02.602Z,25.87
2018-06-28T03:02:30.989Z,22.43
2018-06-28T03:04:59.009Z,22.57
2018-06-28T03:07:27.078Z,27.20
2018-06-28T03:09:55.422Z,25.03
2018-06-28T03:12:23.449Z,28.03
2018-06-28T03:14:51.511Z,26.93
2018-06-28T03:17:19.537Z,28.70
2018-06-28T03:19:47.592Z,27.90
2018-06-28T03:22:15.652Z,31.37
2018-06-28T03:24:43.694Z,33.33
2018-06-28T03:27:11.767Z,29.93
2018-06-28T03:29:39.786Z,26.83
2018-06-28T03:32:07.822Z,31.00
2018-06-28T03:34:35.923Z,28.03
2018-06-28T03:37:04.034Z,29.90
2018-06-28T03:39:32.096Z,23.20
2018-06-28T03:42:00.162Z,25.47
2018-06-28T03:44:28.442Z,26.57
2018-06-28T03:46:56.453Z,27.57
2018-06-28T03:49:24.473Z,28.07
2018-06-28T03:51:52.525Z,26.40
2018-06-28T03:54:20.678Z,30.20
2018-06-28T03:56:48.749Z,27.63
2018-06-28T03:59:16.837Z,25.60
2018-06-28T04:01:45.318Z,36.93
2018-06-28T04:04:13.345Z,29.53
2018-06-28T04:06:41.382Z,30.03
2018-06-28T04:09:10.508Z,27.47
2018-06-28T04:11:38.515Z,27.93
2018-06-28T04:14:06.745Z,25.50
2018-06-28T04:16:35.140Z,27.93
2018-06-28T04:19:03.163Z,28.77
2018-06-28T04:21:31.499Z,28.90
2018-06-28T04:23:59.908Z,26.80
2018-06-28T04:26:27.962Z,28.47
2018-06-28T04:28:56.068Z,32.57
2018-06-28T04:31:24.529Z,27.07
2018-06-28T04:33:52.593Z,30.93
2018-06-28T04:36:20.657Z,25.30
2018-06-28T04:38:48.745Z,26.43
2018-06-28T04:41:16.775Z,24.97
2018-06-28T04:43:44.796Z,33.67
2018-06-28T04:46:12.857Z,32.03
2018-06-28T04:48:40.922Z,28.30
2018-06-28T04:51:08.985Z,26.67
2018-06-28T04:53:37.041Z,26.80
2018-06-28T04:56:05.108Z,27.80
2018-06-28T04:58:33.161Z,27.60
2018-06-28T05:01:01.335Z,29.67
2018-06-28T05:03:29.438Z,25.00
2018-06-28T05:05:57.461Z,28.27
2018-06-28T05:08:25.491Z,29.93
2018-06-28T05:10:53.656Z,29.80
2018-06-28T05:13:21.713Z,26.10
2018-06-28T05:15:49.870Z,27.80
2018-06-28T05:18:17.941Z,27.53
2018-06-28T05:20:45.962Z,24.80
2018-06-28T05:23:14.097Z,25.93
2018-06-28T05:25:42.121Z,26.67
2018-06-28T05:28:10.150Z,24.93
2018-06-28T05:30:39.157Z,25.27
2018-06-28T05:33:07.283Z,31.60
2018-06-28T05:35:35.299Z,23.63
2018-06-28T05:38:03.733Z,25.17
2018-06-28T05:40:31.754Z,28.80
2018-06-28T05:42:59.829Z,24.43
2018-06-28T05:45:28.197Z,29.47
2018-06-28T05:47:56.257Z,21.67
2018-06-28T05:50:24.329Z,28.03
2018-06-28T05:52:52.440Z,22.30
2018-06-28T05:55:20.485Z,26.33
2018-06-28T05:57:48.524Z,25.40
2018-06-28T06:00:16.597Z,32.03
2018-06-28T06:02:44.677Z,23.47
2018-06-28T06:05:12.734Z,27.60
2018-06-28T06:07:41.169Z,25.70
2018-06-28T06:10:09.306Z,23.80
2018-06-28T06:12:37.345Z,22.90
2018-06-28T06:15:05.665Z,23.70
2018-06-28T06:17:33.682Z,23.33
2018-06-28T06:20:01.794Z,23.57
2018-06-28T06:22:29.878Z,21.23
2018-06-28T06:24:57.945Z,25.60
2018-06-28T06:27:25.997Z,26.40
2018-06-28T06:29:54.055Z,21.53
2018-06-28T06:32:22.098Z,30.10
2018-06-28T06:34:50.200Z,23.47
2018-06-28T06:37:18.608Z,26.73
2018-06-28T06:39:46.676Z,27.63
2018-06-28T06:42:14.826Z,20.57
2018-06-28T06:44:43.190Z,21.83
2018-06-28T06:47:11.256Z,24.30
2018-06-28T06:49:39.281Z,23.13
2018-06-28T06:52:07.643Z,19.97
2018-06-28T06:54:35.849Z,20.13
2018-06-28T06:57:03.913Z,19.87
2018-06-28T06:59:31.938Z,19.70
2018-06-28T07:01:59.977Z,21.53
2018-06-28T07:04:28.065Z,17.20
2018-06-28T07:06:56.373Z,20.40
2018-06-28T07:09:24.434Z,17.10
2018-06-28T07:11:52.547Z,17.23
2018-06-28T07:14:20.937Z,19.30
2018-06-28T07:16:48.973Z,15.23
2018-06-28T07:19:17.121Z,14.83
2018-06-28T07:21:45.208Z,14.50
2018-06-28T07:24:13.543Z,15.87
2018-06-28T07:26:41.810Z,16.50
2018-06-28T07:29:10.024Z,15.80
2018-06-28T07:31:38.366Z,15.07
2018-06-28T07:34:06.716Z,13.73
2018-06-28T07:36:35.039Z,13.20
2018-06-28T07:39:03.333Z,14.87
2018-06-28T07:41:31.589Z,16.63
2018-06-28T07:43:59.852Z,16.73
2018-06-28T07:46:28.133Z,13.60
2018-06-28T07:48:56.660Z,14.63
2018-06-28T07:51:24.978Z,13.20
2018-06-28T07:53:53.284Z,14.23
2018-06-28T07:56:21.576Z,13.60
2018-06-28T07:58:49.887Z,14.33
2018-06-28T08:01:18.099Z,13.13
2018-06-28T08:03:46.383Z,15.43
2018-06-28T08:06:14.659Z,13.97
2018-06-28T08:08:42.913Z,13.30
2018-06-28T08:11:11.239Z,13.70
2018-06-28T08:13:39.495Z,12.37
2018-06-28T08:16:07.789Z,11.67
2018-06-28T08:18:36.022Z,11.03
2018-06-28T08:21:04.321Z,12.70
2018-06-28T08:23:32.533Z,9.97
2018-06-28T08:26:01.050Z,10.83
2018-06-28T08:28:29.767Z,13.13
2018-06-28T08:30:58.082Z,10.13
2018-06-28T08:33:26.306Z,9.93
2018-06-28T08:35:54.671Z,8.97
2018-06-28T08:38:22.989Z,9.63
2018-06-28T08:40:51.199Z,10.90
2018-06-28T08:43:19.462Z,8.87
2018-06-28T08:45:47.781Z,11.00
2018-06-28T08:48:16.037Z,8.03
2018-06-28T08:50:44.370Z,12.07
2018-06-28T08:53:12.697Z,9.47
2018-06-28T08:55:41.574Z,9.13
2018-06-28T08:58:09.869Z,7.83
2018-06-28T09:00:38.082Z,8.37
2018-06-28T09:03:06.401Z,9.13
2018-06-28T09:05:34.674Z,8.63
2018-06-28T09:08:02.929Z,9.13
2018-06-28T09:10:31.188Z,10.93
2018-06-28T09:12:59.508Z,12.73
2018-06-28T09:15:27.935Z,12.10
2018-06-28T09:17:56.224Z,8.90
2018-06-28T09:20:24.783Z,10.83
2018-06-28T09:22:52.828Z,9.07
2018-06-28T09:25:21.036Z,14.90
2018-06-28T09:27:49.273Z,9.97
2018-06-28T09:30:17.499Z,10.23
2018-06-28T09:32:45.905Z,9.47
2018-06-28T09:35:14.133Z,8.13
2018-06-28T09:37:42.374Z,9.23
2018-06-28T09:40:10.679Z,7.73
2018-06-28T09:42:38.910Z,10.50
2018-06-28T09:45:07.487Z,7.67
2018-06-28T09:47:35.739Z,6.70
2018-06-28T09:50:04.239Z,7.00
2018-06-28T09:52:32.506Z,6.87
2018-06-28T09:55:00.889Z,6.87
2018-06-28T09:57:29.101Z,7.77
2018-06-28T09:59:57.487Z,5.20
2018-06-28T10:02:25.894Z,4.80
2018-06-28T10:04:53.956Z,5.07
2018-06-28T10:07:22.260Z,4.73
2018-06-28T10:09:50.568Z,4.77
2018-06-28T10:12:18.871Z,5.50
2018-06-28T10:14:47.147Z,10.50
2018-06-28T10:17:15.335Z,9.07
2018-06-28T10:19:43.610Z,7.40
2018-06-28T10:22:11.874Z,6.10
2018-06-28T10:24:40.225Z,7.30
2018-06-28T10:27:08.470Z,6.90
2018-06-28T10:29:36.735Z,7.60
2018-06-28T10:32:05.053Z,6.33
2018-06-28T10:34:33.453Z,6.37
2018-06-28T10:37:01.696Z,4.00
2018-06-28T10:39:29.934Z,5.23
2018-06-28T10:41:58.507Z,4.47
2018-06-28T10:44:26.729Z,4.10
2018-06-28T10:46:55.020Z,4.30
2018-06-28T10:49:23.389Z,6.03
2018-06-28T10:51:51.674Z,4.63
2018-06-28T10:54:19.933Z,3.70
2018-06-28T10:56:48.239Z,4.07
2018-06-28T10:59:16.502Z,3.73
2018-06-28T11:01:44.888Z,5.10
2018-06-28T11:04:13.146Z,3.37
2018-06-28T11:06:41.550Z,4.10
2018-06-28T11:09:10.899Z,3.30
2018-06-28T11:11:40.013Z,3.57
2018-06-28T11:14:08.342Z,2.73
2018-06-28T11:16:36.641Z,3.33
2018-06-28T11:19:04.926Z,3.00
2018-06-28T11:21:33.349Z,3.00
2018-06-28T11:24:01.711Z,2.50
2018-06-28T11:26:29.769Z,2.57
2018-06-28T11:28:58.096Z,4.03
2018-06-28T11:31:26.306Z,4.10
2018-06-28T11:33:54.539Z,2.20
2018-06-28T11:36:22.987Z,1.90
2018-06-28T11:41:11.532Z,1.53
2018-06-28T11:43:39.798Z,4.70
2018-06-28T11:46:07.997Z,1.90
2018-06-28T11:48:36.232Z,2.50
2018-06-28T11:51:04.550Z,1.70
2018-06-28T11:53:32.760Z,2.60
2018-06-28T11:56:00.987Z,2.80
2018-06-28T11:58:29.249Z,1.90
2018-06-28T12:00:57.525Z,1.50
2018-06-28T12:03:25.792Z,1.40
2018-06-28T12:05:54.035Z,1.40
2018-06-28T12:08:22.282Z,2.90
2018-06-28T12:10:50.573Z,1.70
2018-06-28T12:13:18.849Z,1.60
2018-06-28T12:15:47.143Z,1.27
2018-06-28T12:18:15.161Z,1.20
2018-06-28T12:20:43.562Z,1.90
2018-06-28T12:23:11.836Z,1.83
2018-06-28T12:25:40.449Z,2.93
2018-06-28T12:28:08.863Z,1.73
2018-06-28T12:30:36.948Z,2.30
2018-06-28T12:33:05.446Z,1.60
2018-06-28T12:35:33.694Z,1.67
2018-06-28T12:38:01.971Z,1.80
2018-06-28T12:40:30.326Z,2.20
2018-06-28T12:42:58.601Z,3.37
2018-06-28T12:45:26.832Z,2.23
2018-06-28T12:48:04.221Z,2.80
2018-06-28T12:50:32.533Z,2.33
2018-06-28T12:53:02.072Z,4.23
2018-06-28T12:56:34.875Z,2.37
2018-06-28T12:59:07.331Z,3.17
2018-06-28T13:01:36.035Z,3.63
2018-06-28T13:04:04.341Z,3.93
2018-06-28T13:06:32.662Z,2.83
2018-06-28T13:09:02.036Z,3.23
2018-06-28T13:11:30.326Z,4.43
2018-06-28T13:13:58.626Z,3.03
2018-06-28T13:16:27.706Z,4.13
2018-06-28T13:18:55.968Z,4.03
2018-06-28T13:21:24.209Z,3.03
2018-06-28T13:23:53.349Z,3.10
2018-06-28T13:26:21.630Z,6.63
2018-06-28T13:28:49.882Z,6.17
2018-06-28T13:31:18.184Z,3.40
2018-06-28T13:33:46.561Z,3.23
2018-06-28T13:36:14.723Z,4.43
2018-06-28T13:38:42.950Z,3.50
2018-06-28T13:41:11.298Z,4.33
2018-06-28T13:43:39.490Z,6.07
2018-06-28T13:46:07.824Z,3.40
2018-06-28T13:48:35.823Z,4.40
2018-06-28T13:51:04.229Z,5.20
2018-06-28T13:53:32.642Z,3.50
2018-06-28T13:56:00.906Z,4.60
2018-06-28T13:58:29.201Z,5.67
2018-06-28T14:00:57.230Z,4.63
2018-06-28T14:03:27.426Z,6.33
2018-06-28T14:05:55.725Z,4.83
2018-06-28T14:08:24.492Z,5.03
2018-06-28T14:10:52.785Z,4.60
2018-06-28T14:13:21.101Z,5.30
2018-06-28T14:15:49.309Z,6.27
2018-06-28T14:18:17.627Z,8.20
2018-06-28T14:20:45.947Z,5.33
2018-06-28T14:23:14.318Z,4.87
2018-06-28T14:25:42.638Z,4.93
2018-06-28T14:28:10.914Z,5.50
2018-06-28T14:30:39.178Z,6.13
2018-06-28T14:33:07.450Z,6.00
2018-06-28T14:35:35.763Z,5.10
2018-06-28T14:38:04.014Z,4.83
2018-06-28T14:40:32.212Z,4.67
2018-06-28T14:43:00.504Z,5.07
2018-06-28T14:45:28.874Z,7.03
2018-06-28T14:47:57.214Z,4.57
2018-06-28T14:50:25.456Z,4.23
2018-06-28T14:52:53.468Z,4.80
2018-06-28T14:55:21.885Z,4.70
2018-06-28T14:57:50.123Z,8.23
2018-06-28T15:00:18.527Z,4.53
2018-06-28T15:02:46.860Z,4.67
2018-06-28T15:05:15.162Z,3.90
2018-06-28T15:07:43.856Z,4.70
2018-06-28T15:10:12.109Z,4.67
2018-06-28T15:12:40.388Z,3.87
2018-06-28T15:15:08.602Z,4.07
2018-06-28T15:17:36.933Z,3.57
2018-06-28T15:20:05.433Z,3.53
2018-06-28T15:22:33.689Z,3.90
2018-06-28T15:25:01.969Z,3.40
2018-06-28T15:27:30.200Z,3.23
2018-06-28T15:29:58.543Z,3.70
2018-06-28T15:32:26.830Z,4.40
2018-06-28T15:34:55.429Z,3.10
2018-06-28T15:37:23.822Z,3.40
2018-06-28T15:39:52.080Z,3.80
2018-06-28T15:42:20.357Z,3.97
2018-06-28T15:44:48.572Z,3.20
2018-06-28T15:47:16.838Z,3.57
2018-06-28T15:49:45.148Z,4.13
2018-06-28T15:52:13.765Z,3.10
2018-06-28T15:54:42.077Z,3.60
2018-06-28T15:57:10.323Z,3.67
2018-06-28T15:59:38.805Z,3.00
2018-06-28T16:02:07.025Z,3.60
2018-06-28T16:04:35.298Z,4.07
2018-06-28T16:07:03.567Z,3.27
2018-06-28T16:09:31.847Z,6.60
2018-06-28T16:12:00.302Z,3.67
2018-06-28T16:14:28.546Z,4.03
2018-06-28T16:16:56.748Z,3.33
2018-06-28T16:19:24.974Z,3.73
2018-06-28T16:21:53.609Z,3.70
2018-06-28T16:24:21.915Z,2.90
2018-06-28T16:26:49.949Z,2.60
2018-06-28T16:29:18.513Z,4.97
2018-06-28T16:31:46.766Z,4.73
2018-06-28T16:34:15.036Z,3.17
2018-06-28T16:36:43.340Z,3.33
2018-06-28T16:39:11.566Z,3.10
2018-06-28T16:41:39.835Z,3.10
2018-06-28T16:44:08.197Z,3.63
2018-06-28T16:46:36.479Z,3.27
2018-06-28T16:49:04.775Z,4.10
2018-06-28T16:51:33.158Z,3.10
2018-06-28T16:54:01.466Z,9.63
2018-06-28T16:56:29.732Z,4.63
2018-06-28T16:58:58.070Z,2.90
2018-06-28T17:01:26.617Z,2.80
2018-06-28T17:03:54.936Z,3.47
2018-06-28T17:06:23.481Z,5.53
2018-06-28T17:08:51.797Z,3.10
2018-06-28T17:11:20.023Z,3.53
2018-06-28T17:13:48.643Z,3.87
2018-06-28T17:16:16.911Z,3.57
2018-06-28T17:18:45.171Z,4.50
2018-06-28T17:21:13.481Z,3.70
2018-06-28T17:23:41.759Z,3.50
2018-06-28T17:26:10.023Z,6.73
2018-06-28T17:28:38.317Z,3.43
2018-06-28T17:31:06.784Z,3.73
2018-06-28T17:33:35.012Z,3.37
2018-06-28T17:36:03.602Z,3.53
2018-06-28T17:38:31.825Z,3.40
2018-06-28T17:41:00.053Z,4.17
2018-06-28T17:43:28.097Z,5.00
2018-06-28T17:45:56.333Z,4.03
2018-06-28T17:48:24.317Z,3.50
2018-06-28T17:50:52.850Z,4.30
2018-06-28T17:53:21.069Z,4.43
2018-06-28T17:55:49.326Z,4.87
2018-06-28T17:58:17.634Z,3.97
2018-06-28T18:00:45.907Z,3.73
2018-06-28T18:03:14.186Z,2.80
2018-06-28T18:05:42.414Z,6.17
2018-06-28T18:08:10.629Z,3.13
2018-06-28T18:10:38.610Z,3.13
2018-06-28T18:13:07.202Z,2.97
2018-06-28T18:15:35.257Z,4.00
2018-06-28T18:18:03.499Z,2.80
2018-06-28T18:20:31.809Z,3.60
2018-06-28T18:22:59.781Z,3.53
2018-06-28T18:25:28.101Z,2.70
2018-06-28T18:27:56.073Z,4.43
2018-06-28T18:30:24.342Z,3.13
2018-06-28T18:32:52.325Z,2.60
2018-06-28T18:35:20.985Z,2.93
2018-06-28T18:37:49.427Z,4.10
2018-06-28T18:40:17.998Z,3.40
2018-06-28T18:42:46.402Z,3.97
2018-06-28T18:45:14.720Z,3.80
2018-06-28T18:47:43.015Z,6.50
2018-06-28T18:50:11.574Z,2.90
2018-06-28T18:52:39.866Z,3.67
2018-06-28T18:55:08.450Z,2.97
2018-06-28T18:57:36.899Z,3.00
2018-06-28T19:00:05.700Z,3.30
2018-06-28T19:02:33.806Z,3.27
2018-06-28T19:05:02.141Z,3.47
2018-06-28T19:07:30.677Z,3.13
2018-06-28T19:10:04.464Z,3.77
2018-06-28T19:12:32.490Z,3.47
2018-06-28T19:15:06.415Z,5.37
2018-06-28T19:17:34.724Z,4.07
2018-06-28T19:20:03.063Z,3.43
2018-06-28T19:22:37.126Z,5.43
2018-06-28T19:25:06.724Z,4.97
2018-06-28T19:27:35.006Z,5.93
2018-06-28T19:30:08.855Z,5.13
2018-06-28T19:32:37.205Z,4.00
2018-06-28T19:35:05.623Z,3.80
2018-06-28T19:37:39.125Z,5.23
2018-06-28T19:40:13.994Z,3.70
2018-06-28T19:42:47.746Z,7.20
2018-06-28T19:45:16.028Z,4.20
2018-06-28T19:47:44.474Z,5.37
2018-06-28T19:50:18.114Z,4.20
2018-06-28T19:52:52.722Z,3.93
2018-06-28T19:55:20.716Z,4.50
2018-06-28T19:57:48.718Z,3.83
2018-06-28T20:00:22.525Z,4.00
2018-06-28T20:02:56.083Z,5.37
2018-06-28T20:05:24.993Z,3.73
2018-06-28T20:07:53.552Z,4.43
2018-06-28T20:10:22.054Z,4.47
2018-06-28T20:12:55.598Z,3.67
2018-06-28T20:15:40.843Z,3.17
2018-06-28T20:18:14.449Z,6.73
2018-06-28T20:20:43.978Z,4.20
2018-06-28T20:23:12.301Z,6.07
2018-06-28T20:25:41.005Z,4.97
2018-06-28T20:28:14.557Z,4.17
2018-06-28T20:30:48.427Z,4.20
2018-06-28T20:33:22.042Z,5.23
2018-06-28T20:35:50.574Z,4.17
2018-06-28T20:38:18.551Z,4.43
2018-06-28T20:40:46.930Z,5.70
2018-06-28T20:43:15.024Z,6.87
2018-06-28T20:45:43.437Z,4.67
2018-06-28T20:48:11.953Z,6.27
2018-06-28T20:50:40.306Z,4.63
2018-06-28T20:53:08.668Z,4.20
2018-06-28T20:55:37.069Z,4.70
2018-06-28T20:58:06.250Z,4.10
2018-06-28T21:00:34.552Z,4.10
2018-06-28T21:03:02.898Z,4.27
2018-06-28T21:05:31.219Z,4.20
2018-06-28T21:08:00.014Z,4.27
2018-06-28T21:10:28.337Z,3.93
2018-06-28T21:12:56.694Z,7.47
2018-06-28T21:15:24.948Z,5.43
2018-06-28T21:17:53.387Z,3.47
2018-06-28T21:20:21.766Z,5.80
2018-06-28T21:22:50.066Z,4.53
2018-06-28T21:25:18.136Z,4.30
2018-06-28T21:27:46.370Z,4.57
2018-06-28T21:30:14.721Z,4.30
2018-06-28T21:32:43.196Z,4.13
2018-06-28T21:35:11.676Z,4.37
2018-06-28T21:37:40.171Z,4.27
2018-06-28T21:40:08.545Z,3.90
2018-06-28T21:42:36.826Z,4.20
2018-06-28T21:45:05.111Z,3.97
2018-06-28T21:47:33.398Z,3.70
2018-06-28T21:50:01.679Z,4.37
2018-06-28T21:52:30.033Z,3.83
2018-06-28T21:54:58.054Z,3.87
2018-06-28T21:57:26.380Z,4.10
2018-06-28T21:59:54.663Z,3.63
2018-06-28T22:02:22.995Z,3.80
2018-06-28T22:04:51.222Z,7.13
2018-06-28T22:07:19.467Z,3.90
2018-06-28T22:09:47.706Z,3.90
2018-06-28T22:12:15.987Z,7.40
2018-06-28T22:14:44.257Z,6.13
2018-06-28T22:17:12.530Z,3.20
2018-06-28T22:19:40.796Z,4.30
2018-06-28T22:22:09.150Z,4.20
2018-06-28T22:24:37.738Z,4.60
2018-06-28T22:27:06.032Z,4.00
2018-06-28T22:29:34.245Z,3.73
2018-06-28T22:32:02.458Z,5.23
2018-06-28T22:34:30.816Z,5.07
2018-06-28T22:36:59.085Z,4.33
2018-06-28T22:39:27.378Z,6.20
2018-06-28T22:41:55.641Z,4.17
2018-06-28T22:44:23.921Z,7.97
2018-06-28T22:46:52.118Z,6.87
2018-06-28T22:49:20.741Z,3.80
2018-06-28T22:51:49.027Z,4.50
2018-06-28T22:54:17.356Z,4.50
2018-06-28T22:56:46.082Z,5.33
2018-06-28T22:59:14.333Z,4.30
2018-06-28T23:01:42.625Z,4.37
2018-06-28T23:04:11.213Z,5.40
2018-06-28T23:06:39.485Z,5.17
2018-06-28T23:09:08.957Z,4.50
2018-06-28T23:11:37.231Z,4.60
2018-06-28T23:14:05.543Z,5.10
2018-06-28T23:16:33.507Z,3.90
2018-06-28T23:19:01.827Z,5.30
2018-06-28T23:21:30.191Z,4.83
2018-06-28T23:23:58.482Z,5.20
2018-06-28T23:26:27.275Z,4.90
2018-06-28T23:28:55.549Z,4.87
2018-06-28T23:31:23.848Z,4.80
2018-06-28T23:33:52.434Z,4.90
2018-06-28T23:36:22.184Z,4.70
2018-06-28T23:38:51.515Z,4.70
2018-06-28T23:41:19.828Z,7.53
2018-06-28T23:43:48.150Z,5.13
2018-06-28T23:46:16.409Z,5.20
2018-06-28T23:48:45.083Z,5.27
2018-06-28T23:51:13.110Z,5.60
2018-06-28T23:53:41.333Z,5.20
2018-06-28T23:56:09.557Z,5.87
2018-06-28T23:58:37.780Z,6.33
